Time;durP1;ratioP1;P1;durP2;ratioP2;P2;SDS_P1;SDS_P2;PMS_P1;PMS_P2;Temp;Humidity;BMP_temperature;BMP_pressure;BME280_temperature;BME280_humidity;BME280_pressure;Samples;Min_cycle;Max_cycle;Signal;HPM_P1;HPM_P2
2022/02/04 00:07:42;;;;;;;9.07;4.60;;;10.00;99.90;;;;;;5117160;28;20035;-78
2022/02/04 00:20:15;;;;;;;5.95;3.13;;;10.00;99.90;;;;;;5117063;28;20088;-78
2022/02/04 00:23:27;;;;;;;5.13;2.90;;;10.00;99.90;;;;;;5116866;28;20016;-75
2022/02/04 00:28:27;;;;;;;4.03;2.13;;;10.10;99.90;;;;;;5116745;28;20088;-77
2022/02/04 00:31:17;;;;;;;6.05;3.38;;;10.10;99.90;;;;;;5116788;28;20079;-76
2022/02/04 00:33:46;;;;;;;2.78;1.80;;;10.00;99.90;;;;;;5116984;28;20015;-78
2022/02/04 00:38:41;;;;;;;8.13;5.00;;;10.00;99.90;;;;;;5116824;28;20024;-78
2022/02/04 00:41:10;;;;;;;2.22;1.83;;;10.00;99.90;;;;;;5115084;28;20031;-78
2022/02/04 00:43:38;;;;;;;5.82;2.45;;;10.10;99.90;;;;;;5115201;28;20039;-78
2022/02/04 00:51:26;;;;;;;11.45;6.68;;;10.00;99.90;;;;;;5116303;28;20042;-77
2022/02/04 00:53:58;;;;;;;8.13;4.03;;;10.00;99.90;;;;;;5116482;28;20076;-78
2022/02/04 00:56:42;;;;;;;6.10;3.05;;;10.00;99.90;;;;;;5116535;28;20024;-77
2022/02/04 01:26:17;;;;;;;9.82;4.20;;;9.80;99.90;;;;;;5115736;28;20141;-77
2022/02/04 01:28:46;;;;;;;4.78;3.08;;;9.80;99.90;;;;;;5115599;28;20048;-76
2022/02/04 01:31:15;;;;;;;4.72;2.90;;;9.90;99.90;;;;;;5115531;28;20080;-78
2022/02/04 01:33:40;;;;;;;6.82;3.55;;;9.90;99.90;;;;;;5115523;27;20015;-77
2022/02/04 01:36:06;;;;;;;7.30;3.40;;;9.80;99.90;;;;;;5115426;28;20370;-77
2022/02/04 01:38:32;;;;;;;6.50;3.58;;;9.90;99.90;;;;;;5115404;28;20027;-76
2022/02/04 01:40:59;;;;;;;4.82;2.70;;;9.90;99.90;;;;;;5115555;28;20533;-77
2022/02/04 01:43:25;;;;;;;6.45;3.30;;;9.90;99.90;;;;;;5115341;28;20485;-77
2022/02/04 01:45:53;;;;;;;4.57;3.03;;;10.00;99.90;;;;;;5115526;28;20024;-78
2022/02/04 01:48:20;;;;;;;6.05;3.47;;;10.00;99.90;;;;;;5115375;28;20062;-76
2022/02/04 01:50:47;;;;;;;5.30;3.15;;;10.00;99.90;;;;;;5115177;28;20085;-77
2022/02/04 01:53:14;;;;;;;14.40;10.05;;;9.90;99.90;;;;;;5114757;28;20049;-77
2022/02/04 01:55:45;;;;;;;16.55;8.57;;;9.90;99.90;;;;;;5115304;28;20412;-75
2022/02/04 01:58:11;;;;;;;7.13;4.18;;;9.90;99.90;;;;;;5115382;28;20032;-77
2022/02/04 02:00:38;;;;;;;5.68;3.40;;;9.90;99.90;;;;;;5114895;28;20388;-76
2022/02/04 02:03:08;;;;;;;4.78;3.20;;;9.90;99.90;;;;;;5114563;28;20108;-77
2022/02/04 02:05:36;;;;;;;3.33;2.53;;;9.90;99.90;;;;;;5113628;28;20016;-77
2022/02/04 02:08:10;;;;;;;4.05;2.80;;;10.00;99.90;;;;;;5114829;28;20034;-77
2022/02/04 02:10:36;;;;;;;4.82;3.00;;;10.00;99.90;;;;;;5115111;28;20481;-77
2022/02/04 02:45:53;;;;;;;15.50;6.43;;;10.00;99.90;;;;;;5114700;28;20031;-77
2022/02/04 02:58:57;;;;;;;12.80;8.05;;;9.90;99.90;;;;;;5113719;28;20076;-77
2022/02/04 03:01:22;;;;;;;16.40;8.82;;;9.90;99.90;;;;;;5113951;28;20088;-76
2022/02/04 03:03:53;;;;;;;7.15;4.32;;;9.90;99.90;;;;;;5112815;28;20466;-76
2022/02/04 03:06:19;;;;;;;11.40;6.65;;;9.90;99.90;;;;;;5114143;28;20023;-78
2022/02/04 03:08:45;;;;;;;9.18;4.93;;;9.90;99.90;;;;;;5113803;28;20179;-76
2022/02/04 03:11:11;;;;;;;4.28;2.13;;;9.90;99.90;;;;;;5113772;28;20075;-77
2022/02/04 03:13:37;;;;;;;4.28;2.70;;;9.90;99.90;;;;;;5113787;28;20019;-77
2022/02/04 03:16:07;;;;;;;4.30;3.08;;;9.90;99.90;;;;;;5113739;28;20453;-76
2022/02/04 03:18:36;;;;;;;5.38;2.28;;;9.90;99.90;;;;;;5114340;28;20026;-77
2022/02/04 03:21:10;;;;;;;3.20;2.35;;;9.90;99.90;;;;;;5113848;28;20028;-76
2022/02/04 03:23:38;;;;;;;6.22;2.33;;;9.90;99.90;;;;;;5113697;28;20076;-78
2022/02/04 03:26:10;;;;;;;6.88;2.65;;;9.80;99.90;;;;;;5113638;28;20024;-77
2022/02/04 03:28:37;;;;;;;3.80;2.42;;;9.80;99.90;;;;;;5113710;28;20030;-77
2022/02/04 03:31:04;;;;;;;3.83;2.47;;;9.80;99.90;;;;;;5113601;28;20536;-77
2022/02/04 03:33:31;;;;;;;5.95;2.67;;;9.80;99.90;;;;;;5113606;28;20016;-75
2022/02/04 03:35:57;;;;;;;3.92;2.22;;;9.80;99.90;;;;;;5113744;28;20026;-78
2022/02/04 03:38:22;;;;;;;6.68;3.00;;;9.80;99.90;;;;;;5113466;28;20452;-75
2022/02/04 03:40:49;;;;;;;4.20;2.33;;;9.80;99.90;;;;;;5113356;28;20061;-79
2022/02/04 03:43:15;;;;;;;6.57;3.05;;;9.80;99.90;;;;;;5113746;28;20489;-76
2022/02/04 03:45:40;;;;;;;4.40;2.55;;;9.80;99.90;;;;;;5113426;28;20026;-75
2022/02/04 03:48:06;;;;;;;4.82;2.60;;;9.80;99.90;;;;;;5113447;28;20012;-77
2022/02/04 03:50:32;;;;;;;6.13;2.45;;;9.80;99.90;;;;;;5113406;28;20027;-80
2022/02/04 03:52:59;;;;;;;3.53;2.35;;;9.80;99.90;;;;;;5113673;28;20500;-77
2022/02/04 03:55:25;;;;;;;2.88;2.28;;;9.80;99.90;;;;;;5113327;28;20032;-76
2022/02/04 03:57:51;;;;;;;4.22;2.15;;;9.80;99.90;;;;;;5113401;28;20032;-78
2022/02/04 04:00:17;;;;;;;4.85;2.55;;;9.80;99.90;;;;;;5113258;28;20401;-77
2022/02/04 04:02:44;;;;;;;4.47;2.00;;;9.80;99.90;;;;;;5113075;28;20048;-76
2022/02/04 04:05:12;;;;;;;4.10;2.70;;;9.80;99.90;;;;;;5111992;28;20019;-76
2022/02/04 04:07:43;;;;;;;4.47;2.13;;;9.80;99.90;;;;;;5113232;28;20054;-77
2022/02/04 04:10:14;;;;;;;2.80;1.92;;;9.80;99.90;;;;;;5113570;28;20051;-76
2022/02/04 04:12:40;;;;;;;3.10;2.08;;;9.80;99.90;;;;;;5113780;28;20046;-79
2022/02/04 04:15:08;;;;;;;4.32;2.05;;;9.80;99.90;;;;;;5113943;28;20469;-76
2022/02/04 04:17:40;;;;;;;5.10;2.20;;;9.80;99.90;;;;;;5117556;28;20020;-76
2022/02/04 04:20:14;;;;;;;2.88;2.33;;;9.80;99.90;;;;;;5116917;28;20466;-76
2022/02/04 04:22:41;;;;;;;6.45;2.28;;;9.80;99.90;;;;;;5115376;28;20020;-76
2022/02/04 04:25:08;;;;;;;3.75;1.85;;;9.80;99.90;;;;;;5116877;28;20020;-78
2022/02/04 04:27:34;;;;;;;3.47;2.00;;;9.80;99.90;;;;;;5117050;28;20099;-78
2022/02/04 04:30:00;;;;;;;2.95;1.90;;;9.80;99.90;;;;;;5116763;28;20027;-79
2022/02/04 04:32:25;;;;;;;4.53;2.10;;;9.80;99.90;;;;;;5116743;28;20028;-77
2022/02/04 04:34:51;;;;;;;4.65;2.25;;;9.80;99.90;;;;;;5116428;28;20073;-75
2022/02/04 04:37:17;;;;;;;3.65;2.25;;;9.80;99.90;;;;;;5116872;28;20027;-79
2022/02/04 04:40:04;;;;;;;4.15;2.25;;;9.80;99.90;;;;;;5116476;28;20096;-77
2022/02/04 04:42:51;;;;;;;5.65;2.50;;;9.80;99.90;;;;;;5116679;28;20020;-77
2022/02/04 05:29:10;;;;;;;4.68;2.35;;;9.60;99.90;;;;;;5115640;28;20491;-78
2022/02/04 05:31:36;;;;;;;4.72;2.17;;;9.60;99.90;;;;;;5115656;28;20031;-78
2022/02/04 05:34:02;;;;;;;5.50;2.40;;;9.60;99.90;;;;;;5116041;28;20024;-76
2022/02/04 05:36:28;;;;;;;4.65;2.20;;;9.60;99.90;;;;;;5115800;28;20051;-78
2022/02/04 05:38:54;;;;;;;4.28;2.28;;;9.60;99.90;;;;;;5115760;28;20019;-77
2022/02/04 05:41:27;;;;;;;4.50;2.20;;;9.60;99.90;;;;;;5115723;28;20020;-76
2022/02/04 05:43:56;;;;;;;4.07;2.13;;;9.60;99.90;;;;;;5115673;28;20020;-77
2022/02/04 05:46:27;;;;;;;4.47;2.70;;;9.70;99.90;;;;;;5115281;28;20485;-77
2022/02/04 05:48:55;;;;;;;4.47;2.65;;;9.60;99.90;;;;;;5115537;28;20020;-75
2022/02/04 05:51:33;;;;;;;3.50;1.95;;;9.70;99.90;;;;;;5115184;28;20065;-75
2022/02/04 05:54:21;;;;;;;2.83;2.35;;;9.60;99.90;;;;;;5115420;27;20047;-76
2022/02/04 05:59:40;;;;;;;5.63;2.40;;;9.60;99.90;;;;;;5114923;28;20024;-76
2022/02/04 06:22:08;;;;;;;3.90;2.15;;;9.60;99.90;;;;;;5114398;28;20030;-75
2022/02/04 06:23:15;;;;;;;6.68;2.22;;;9.60;99.90;;;;;;5114613;28;20153;-75
2022/02/04 06:25:44;;;;;;;5.32;2.72;;;9.70;99.90;;;;;;5114482;28;20047;-80
2022/02/04 06:28:10;;;;;;;4.85;2.60;;;9.70;99.90;;;;;;5114481;28;20024;-77
2022/02/04 06:30:38;;;;;;;4.13;2.20;;;9.70;99.90;;;;;;5114969;27;20374;-76
2022/02/04 06:33:04;;;;;;;4.97;2.45;;;9.70;99.90;;;;;;5114668;28;20054;-76
2022/02/04 06:35:31;;;;;;;3.63;2.17;;;9.70;99.90;;;;;;5114856;28;20043;-75
2022/02/04 06:37:57;;;;;;;5.07;2.15;;;9.70;99.90;;;;;;5114296;28;20397;-77
2022/02/04 06:40:23;;;;;;;4.13;2.05;;;9.60;99.90;;;;;;5114219;28;20024;-77
2022/02/04 06:42:49;;;;;;;3.90;2.03;;;9.50;99.90;;;;;;5114252;28;20023;-76
2022/02/04 06:45:14;;;;;;;4.20;2.03;;;9.50;99.90;;;;;;5114186;28;20497;-77
2022/02/04 06:47:41;;;;;;;4.88;2.35;;;9.50;99.90;;;;;;5114117;28;20080;-76
2022/02/04 06:50:07;;;;;;;3.05;2.30;;;9.40;99.90;;;;;;5114340;28;20087;-77
2022/02/04 06:52:32;;;;;;;4.38;2.30;;;9.30;99.90;;;;;;5114092;28;20482;-76
2022/02/04 06:54:58;;;;;;;4.38;2.28;;;9.30;99.90;;;;;;5113911;28;20099;-77
2022/02/04 06:57:24;;;;;;;5.07;2.47;;;9.30;99.90;;;;;;5113945;28;20023;-75
2022/02/04 06:59:52;;;;;;;4.05;2.20;;;9.30;99.90;;;;;;5114123;28;20054;-77
2022/02/04 07:02:20;;;;;;;4.38;2.53;;;9.20;99.90;;;;;;5113850;28;20019;-77
2022/02/04 07:04:45;;;;;;;4.32;1.70;;;9.30;99.90;;;;;;5114214;28;20115;-76
2022/02/04 07:07:12;;;;;;;4.32;1.83;;;9.30;99.90;;;;;;5114100;28;20477;-77
2022/02/04 07:12:51;;;;;;;4.13;2.10;;;9.30;99.90;;;;;;5114055;28;20550;-79
2022/02/04 07:15:24;;;;;;;4.85;2.35;;;9.30;99.90;;;;;;5111529;28;20039;-77
2022/02/04 07:18:01;;;;;;;3.88;2.15;;;9.30;99.90;;;;;;5113602;28;20374;-79
2022/02/04 07:20:27;;;;;;;4.30;2.13;;;9.30;99.90;;;;;;5113973;28;20024;-76
2022/02/04 07:22:52;;;;;;;5.47;2.67;;;9.30;99.90;;;;;;5113717;28;20020;-77
2022/02/04 07:25:18;;;;;;;3.28;2.40;;;9.30;99.90;;;;;;5113925;28;20088;-77
2022/02/04 07:27:45;;;;;;;5.00;2.58;;;9.30;99.90;;;;;;5113538;28;20485;-77
2022/02/04 07:30:12;;;;;;;8.00;3.63;;;9.40;99.90;;;;;;5113585;28;20020;-77
2022/02/04 07:32:55;;;;;;;13.77;6.30;;;9.40;99.90;;;;;;5113631;28;20446;-76
2022/02/04 07:38:37;;;;;;;9.68;5.03;;;9.40;99.90;;;;;;5112054;28;20033;-76
2022/02/04 07:41:06;;;;;;;30.70;17.52;;;9.30;99.90;;;;;;5113211;28;20425;-78
2022/02/04 07:43:32;;;;;;;22.92;12.23;;;9.30;99.90;;;;;;5113758;28;20506;-78
2022/02/04 07:45:58;;;;;;;9.02;5.25;;;9.40;99.90;;;;;;5113502;28;20024;-77
2022/02/04 07:48:25;;;;;;;9.35;4.70;;;9.40;99.90;;;;;;5113398;28;20537;-78
2022/02/04 07:50:51;;;;;;;15.88;11.70;;;9.40;99.90;;;;;;5115484;28;20028;-78
2022/02/04 07:53:18;;;;;;;10.80;5.60;;;9.40;99.90;;;;;;5117790;28;20073;-78
2022/02/04 07:55:45;;;;;;;8.00;5.35;;;9.40;99.90;;;;;;5117343;28;20493;-78
2022/02/04 07:58:13;;;;;;;16.55;10.13;;;9.40;99.90;;;;;;5117388;28;20077;-78
2022/02/04 08:00:40;;;;;;;7.07;4.30;;;9.40;99.90;;;;;;5117803;28;20023;-78
2022/02/04 08:05:54;;;;;;;7.60;4.10;;;9.50;99.90;;;;;;5117293;28;20058;-79
2022/02/04 08:08:28;;;;;;;15.57;10.40;;;9.50;99.90;;;;;;5117213;27;20542;-78
2022/02/04 08:11:23;;;;;;;28.77;17.42;;;9.50;99.90;;;;;;5117197;28;20030;-79
2022/02/04 08:32:44;;;;;;;8.85;3.50;;;9.60;99.90;;;;;;5116698;28;20035;-78
2022/02/04 08:53:56;;;;;;;18.70;11.82;;;10.10;99.90;;;;;;5116234;28;20433;-80
2022/02/04 08:56:35;;;;;;;3.80;2.42;;;10.10;99.90;;;;;;5114794;28;20023;-77
2022/02/04 08:59:08;;;;;;;9.68;6.35;;;10.20;99.90;;;;;;5114703;28;20034;-79
2022/02/04 09:01:39;;;;;;;3.58;1.92;;;10.30;99.90;;;;;;5115646;28;20035;-78
2022/02/04 09:04:16;;;;;;;7.75;4.63;;;10.30;99.90;;;;;;5115666;28;20058;-78
2022/02/04 09:06:44;;;;;;;7.05;2.45;;;10.30;99.90;;;;;;5114584;28;20027;-78
2022/02/04 09:09:24;;;;;;;4.10;2.15;;;10.40;99.90;;;;;;5116062;27;20023;-78
2022/02/04 09:11:54;;;;;;;2.95;2.08;;;10.40;99.90;;;;;;5114460;28;20054;-78
2022/02/04 09:19:42;;;;;;;5.28;2.75;;;10.50;99.90;;;;;;5115696;28;20019;-73
2022/02/04 09:24:43;;;;;;;14.38;6.88;;;10.60;99.90;;;;;;5115784;28;20019;-80
2022/02/04 09:27:09;;;;;;;5.85;2.25;;;10.60;99.90;;;;;;5115717;28;20024;-78
2022/02/04 09:29:35;;;;;;;16.58;12.48;;;10.70;99.90;;;;;;5115653;28;20077;-79
2022/02/04 09:32:00;;;;;;;5.35;2.53;;;10.90;99.90;;;;;;5115626;28;20493;-79
2022/02/04 09:34:26;;;;;;;3.28;1.85;;;11.20;99.90;;;;;;5115814;28;20473;-78
2022/02/04 09:36:52;;;;;;;6.32;3.17;;;11.50;99.90;;;;;;5115499;28;20028;-77
2022/02/04 09:39:17;;;;;;;7.03;4.32;;;11.70;99.90;;;;;;5115703;28;20126;-78
2022/02/04 09:41:43;;;;;;;2.58;0.95;;;12.00;99.90;;;;;;5115702;28;20504;-79
2022/02/04 09:44:09;;;;;;;2.78;1.73;;;12.10;99.90;;;;;;5115694;28;20080;-78
2022/02/04 09:46:36;;;;;;;3.80;2.30;;;12.20;99.90;;;;;;5115334;28;20493;-78
2022/02/04 09:49:05;;;;;;;2.60;1.90;;;12.20;99.90;;;;;;5115287;28;20018;-79
2022/02/04 09:51:48;;;;;;;4.55;1.73;;;12.30;99.90;;;;;;5115240;27;20490;-79
2022/02/04 10:08:44;;;;;;;4.00;1.73;;;11.80;99.90;;;;;;5114789;28;20023;-76
2022/02/04 10:19:49;;;;;;;2.40;1.13;;;12.10;99.90;;;;;;5112651;28;20126;-76
2022/02/04 10:22:19;;;;;;;2.53;1.08;;;12.20;99.90;;;;;;5113139;28;20513;-76
2022/02/04 10:24:58;;;;;;;3.85;1.02;;;12.20;99.90;;;;;;5113488;28;20461;-76
2022/02/04 10:27:26;;;;;;;4.47;1.50;;;12.30;99.90;;;;;;5113820;28;20023;-76
2022/02/04 10:29:53;;;;;;;4.60;1.25;;;12.40;99.90;;;;;;5114474;27;20020;-75
2022/02/04 10:32:43;;;;;;;5.82;1.10;;;12.40;99.90;;;;;;5114773;28;20058;-76
2022/02/04 10:35:21;;;;;;;2.00;1.40;;;12.40;99.90;;;;;;5114722;28;20106;-75
2022/02/04 10:37:56;;;;;;;2.72;1.15;;;12.50;99.90;;;;;;5114397;28;20098;-76
2022/02/04 10:40:27;;;;;;;4.80;1.25;;;12.70;99.90;;;;;;5114512;28;20367;-76
2022/02/04 10:48:33;;;;;;;4.63;1.50;;;12.40;99.90;;;;;;5114503;28;20026;-75
2022/02/04 10:54:24;;;;;;;1.85;1.30;;;12.30;99.90;;;;;;5090545;28;20036;-76
2022/02/04 10:57:39;;;;;;;8.68;1.50;;;12.30;99.90;;;;;;5113842;28;20024;-76
2022/02/04 11:00:00;;;;;;;5.50;1.40;;;12.20;99.90;;;;;;5107960;28;20031;-75
2022/02/04 11:05:43;;;;;;;6.15;1.95;;;12.10;99.90;;;;;;5104334;28;20485;-75
2022/02/04 11:22:09;;;;;;;3.78;1.63;;;12.20;99.90;;;;;;5114026;28;20116;-75
2022/02/04 11:35:54;;;;;;;4.60;1.50;;;12.10;99.90;;;;;;5113438;28;20522;-75
2022/02/04 11:53:56;;;;;;;6.05;1.52;;;11.50;99.90;;;;;;5076919;28;20111;-78
2022/02/04 11:56:22;;;;;;;4.70;1.58;;;11.40;99.90;;;;;;5113331;28;20019;-79
2022/02/04 11:59:02;;;;;;;3.00;1.17;;;11.40;99.90;;;;;;5114138;28;20024;-80
2022/02/04 12:01:42;;;;;;;4.18;1.30;;;11.50;99.90;;;;;;5113902;28;20088;-76
2022/02/04 12:04:21;;;;;;;5.45;1.30;;;11.50;99.90;;;;;;5113647;28;20051;-77
2022/02/04 12:06:47;;;;;;;3.55;1.50;;;11.50;99.90;;;;;;5112841;28;20089;-76
2022/02/04 12:09:37;;;;;;;6.25;2.75;;;11.30;99.90;;;;;;5111699;28;20080;-78
2022/02/04 12:12:03;;;;;;;2.58;0.88;;;11.20;99.90;;;;;;5111722;28;20409;-76
2022/02/04 12:14:30;;;;;;;3.08;0.68;;;10.90;99.90;;;;;;5111857;28;20028;-79
2022/02/04 12:17:13;;;;;;;0.65;0.40;;;10.50;99.90;;;;;;5113128;28;20023;-78
2022/02/04 12:19:44;;;;;;;2.35;0.30;;;10.20;99.90;;;;;;5113217;28;20036;-78
2022/02/04 12:22:11;;;;;;;0.25;0.25;;;10.10;99.90;;;;;;5111901;28;20430;-76
2022/02/04 12:24:39;;;;;;;2.17;0.30;;;10.00;99.90;;;;;;5113198;28;20020;-78
2022/02/04 12:27:52;;;;;;;1.63;0.63;;;10.00;99.90;;;;;;5113111;28;20019;-77
2022/02/04 12:30:33;;;;;;;0.85;0.40;;;9.90;99.90;;;;;;5030790;28;20033;-78
2022/02/04 12:33:01;;;;;;;0.28;0.22;;;9.90;99.90;;;;;;5111237;28;20040;-76
2022/02/04 12:35:29;;;;;;;2.72;0.57;;;9.80;99.90;;;;;;5113620;28;20051;-77
2022/02/04 12:37:55;;;;;;;1.23;0.50;;;9.80;99.90;;;;;;5116213;28;20019;-79
2022/02/04 12:40:21;;;;;;;0.30;0.30;;;9.80;99.90;;;;;;5116854;28;20032;-78
2022/02/04 12:42:47;;;;;;;0.50;0.30;;;9.70;99.90;;;;;;5116874;28;20598;-77
2022/02/04 12:45:14;;;;;;;0.57;0.40;;;9.60;99.90;;;;;;5116810;28;20034;-79
2022/02/04 12:47:41;;;;;;;2.08;0.50;;;9.70;99.90;;;;;;5116550;28;20016;-76
2022/02/04 12:50:08;;;;;;;1.77;0.77;;;9.50;99.90;;;;;;5116445;28;20038;-78
2022/02/04 12:52:47;;;;;;;2.80;0.73;;;9.50;99.90;;;;;;5117018;28;20028;-77
2022/02/04 12:55:22;;;;;;;2.92;0.90;;;9.50;99.90;;;;;;5116636;27;20084;-75
2022/02/04 13:11:08;;;;;;;5.30;1.40;;;9.60;99.90;;;;;;5116367;28;20068;-77
2022/02/04 13:13:43;;;;;;;4.53;0.90;;;9.60;99.90;;;;;;5116685;28;20466;-76
2022/02/04 13:16:35;;;;;;;4.88;0.88;;;9.60;99.90;;;;;;5116012;27;20024;-76
2022/02/04 13:19:02;;;;;;;5.65;1.30;;;9.60;99.90;;;;;;5116213;28;20042;-76
2022/02/04 13:21:30;;;;;;;5.88;1.30;;;9.60;99.90;;;;;;5115766;28;20028;-76
2022/02/04 13:24:02;;;;;;;6.78;1.23;;;9.60;99.90;;;;;;5116095;28;20020;-75
2022/02/04 13:26:29;;;;;;;4.88;1.35;;;9.60;99.90;;;;;;5116148;28;20027;-76
2022/02/04 13:29:00;;;;;;;4.32;0.65;;;9.50;99.90;;;;;;5114408;28;20026;-78
2022/02/04 13:31:27;;;;;;;4.28;0.95;;;9.40;99.90;;;;;;5115977;28;20039;-77
2022/02/04 13:33:56;;;;;;;2.35;0.50;;;9.30;99.90;;;;;;5115609;28;20024;-77
2022/02/04 13:36:37;;;;;;;2.85;1.10;;;9.10;99.90;;;;;;5115567;28;20069;-75
2022/02/04 13:50:22;;;;;;;5.97;1.00;;;9.20;99.90;;;;;;5114572;28;20413;-79
2022/02/04 14:03:31;;;;;;;4.97;0.98;;;9.60;99.90;;;;;;5115003;28;20042;-79
2022/02/04 14:06:05;;;;;;;5.05;1.20;;;9.50;99.90;;;;;;5114957;28;20477;-78
2022/02/04 14:08:44;;;;;;;4.35;1.30;;;9.50;99.90;;;;;;5113426;28;20050;-78
2022/02/04 14:11:09;;;;;;;7.00;1.17;;;9.50;99.90;;;;;;5113392;28;20051;-76
2022/02/04 14:13:35;;;;;;;9.77;1.05;;;9.50;99.90;;;;;;5115162;28;20411;-77
2022/02/04 14:16:07;;;;;;;4.93;1.90;;;9.50;99.90;;;;;;5114739;27;20096;-75
2022/02/04 14:18:35;;;;;;;6.78;1.73;;;9.50;99.90;;;;;;5115092;28;20055;-76
2022/02/04 14:21:01;;;;;;;5.03;1.20;;;9.60;99.90;;;;;;5114611;28;20435;-77
2022/02/04 14:23:28;;;;;;;5.10;1.20;;;9.60;99.90;;;;;;5114949;28;20019;-79
2022/02/04 14:26:16;;;;;;;6.25;1.20;;;9.50;99.90;;;;;;5114867;28;20031;-76
2022/02/04 14:36:31;;;;;;;6.07;1.50;;;9.60;99.90;;;;;;5114496;28;20473;-78
2022/02/04 15:02:47;;;;;;;4.85;1.35;;;9.90;99.90;;;;;;5114040;27;20050;-77
2022/02/04 15:05:18;;;;;;;8.70;1.75;;;9.90;99.90;;;;;;5114220;28;20431;-78
2022/02/04 15:07:45;;;;;;;3.88;1.35;;;10.00;99.90;;;;;;5112877;28;20389;-76
2022/02/04 15:10:22;;;;;;;3.88;1.00;;;10.20;99.90;;;;;;5114116;28;20065;-75
2022/02/04 15:12:47;;;;;;;4.10;1.17;;;10.20;99.90;;;;;;5113849;28;20110;-76
2022/02/04 15:15:13;;;;;;;10.90;1.83;;;10.20;99.90;;;;;;5112530;28;20557;-75
2022/02/04 15:17:40;;;;;;;4.65;1.88;;;10.20;99.90;;;;;;5113776;28;20471;-78
2022/02/04 15:20:06;;;;;;;8.85;1.80;;;10.20;99.90;;;;;;5113684;28;20023;-78
2022/02/04 15:22:32;;;;;;;11.52;2.47;;;10.10;99.90;;;;;;5113700;28;20024;-76
2022/02/04 15:25:05;;;;;;;11.52;1.73;;;10.10;99.90;;;;;;5114002;28;20493;-75
2022/02/04 15:27:34;;;;;;;8.00;2.00;;;10.10;99.90;;;;;;5113948;28;20024;-75
2022/02/04 15:30:02;;;;;;;11.65;1.70;;;10.20;99.90;;;;;;5113956;28;20061;-78
2022/02/04 15:32:29;;;;;;;7.70;1.30;;;10.20;99.90;;;;;;5112334;28;20035;-77
2022/02/04 15:34:55;;;;;;;4.28;0.98;;;10.20;99.90;;;;;;5113860;28;20023;-75
2022/02/04 15:37:20;;;;;;;6.22;1.15;;;10.30;99.90;;;;;;5113647;28;20024;-79
2022/02/04 15:39:46;;;;;;;8.15;1.52;;;10.30;99.90;;;;;;5113426;28;20100;-75
2022/02/04 15:42:14;;;;;;;6.60;1.50;;;10.20;99.90;;;;;;5113505;28;20022;-77
2022/02/04 15:45:14;;;;;;;10.18;1.67;;;10.20;99.90;;;;;;5113506;28;20103;-77
2022/02/04 15:47:57;;;;;;;7.28;1.52;;;10.20;99.90;;;;;;5111961;28;20051;-76
2022/02/04 15:50:30;;;;;;;5.80;1.35;;;10.20;99.90;;;;;;5113789;28;20047;-78
2022/02/04 15:53:17;;;;;;;9.45;1.80;;;10.20;99.90;;;;;;5113779;28;20036;-77
2022/02/04 16:03:43;;;;;;;9.68;1.58;;;9.90;99.90;;;;;;5113160;28;20063;-78
2022/02/04 16:06:13;;;;;;;5.50;1.52;;;9.90;99.90;;;;;;5111733;28;20027;-76
2022/02/04 16:08:38;;;;;;;7.38;1.70;;;9.90;99.90;;;;;;5113262;28;20028;-77
2022/02/04 16:14:03;;;;;;;6.05;1.63;;;9.80;99.90;;;;;;5097372;28;20063;-75
2022/02/04 16:16:34;;;;;;;9.00;1.83;;;9.80;99.90;;;;;;5117489;28;20106;-76
2022/02/04 16:19:07;;;;;;;7.43;1.92;;;9.70;99.90;;;;;;5117645;28;20449;-76
2022/02/04 16:21:43;;;;;;;7.45;1.80;;;9.70;99.90;;;;;;5117339;28;20484;-76
2022/02/04 16:26:53;;;;;;;12.32;2.25;;;9.70;99.90;;;;;;5116987;28;20472;-77
2022/02/04 16:29:19;;;;;;;9.70;1.30;;;9.70;99.90;;;;;;5116974;28;20452;-78
2022/02/04 16:31:45;;;;;;;7.95;1.42;;;9.60;99.90;;;;;;5117107;28;20051;-75
2022/02/04 16:34:12;;;;;;;5.78;1.92;;;9.60;99.90;;;;;;5117325;28;20019;-78
2022/02/04 16:36:40;;;;;;;8.45;1.70;;;9.60;99.90;;;;;;5116719;28;20457;-78
2022/02/04 16:39:07;;;;;;;7.72;1.85;;;9.50;99.90;;;;;;5116667;28;20047;-76
2022/02/04 16:41:47;;;;;;;10.20;1.65;;;9.50;99.90;;;;;;5115299;28;20485;-76
2022/02/04 16:44:13;;;;;;;8.65;1.98;;;9.50;99.90;;;;;;5116617;28;20020;-78
2022/02/04 16:46:40;;;;;;;6.13;1.60;;;9.40;99.90;;;;;;5116824;28;20024;-77
2022/02/04 16:49:06;;;;;;;8.38;2.03;;;9.40;99.90;;;;;;5116490;28;20059;-77
2022/02/04 16:51:32;;;;;;;8.23;1.67;;;9.30;99.90;;;;;;5116437;28;20054;-77
2022/02/04 16:53:57;;;;;;;6.82;1.70;;;9.30;99.90;;;;;;5116261;28;20035;-76
2022/02/04 16:56:23;;;;;;;7.63;1.80;;;9.30;99.90;;;;;;5116582;28;20389;-78
2022/02/04 16:58:49;;;;;;;8.35;2.00;;;9.30;99.90;;;;;;5116288;28;20118;-76
2022/02/04 17:01:17;;;;;;;9.10;2.20;;;9.20;99.90;;;;;;5116169;28;20042;-76
2022/02/04 17:03:42;;;;;;;7.47;1.83;;;9.10;99.90;;;;;;5114725;28;20092;-76
2022/02/04 17:06:10;;;;;;;7.20;2.58;;;9.20;99.90;;;;;;5116100;28;20020;-78
2022/02/04 17:08:46;;;;;;;7.13;2.30;;;9.20;99.90;;;;;;5116407;28;20030;-77
2022/02/04 17:11:14;;;;;;;12.32;2.83;;;9.20;99.90;;;;;;5116399;28;20161;-76
2022/02/04 17:13:40;;;;;;;8.98;2.60;;;9.20;99.90;;;;;;5116042;28;20128;-76
2022/02/04 17:16:06;;;;;;;8.40;2.58;;;9.20;99.90;;;;;;5115993;28;20155;-77
2022/02/04 17:18:32;;;;;;;7.47;2.03;;;9.20;99.90;;;;;;5115952;28;20497;-76
2022/02/04 17:20:58;;;;;;;8.73;2.25;;;9.20;99.90;;;;;;5116117;28;20030;-75
2022/02/04 17:23:43;;;;;;;10.25;1.98;;;9.20;99.90;;;;;;5115099;28;20468;-77
2022/02/04 17:26:15;;;;;;;8.88;1.77;;;9.20;99.90;;;;;;5114262;28;20023;-78
2022/02/04 17:28:40;;;;;;;7.22;2.05;;;9.20;99.90;;;;;;5116083;28;20015;-75
2022/02/04 17:31:07;;;;;;;8.77;3.42;;;9.30;99.90;;;;;;5115982;28;20099;-76
2022/02/04 17:33:33;;;;;;;14.45;4.53;;;9.20;99.90;;;;;;5115985;28;20070;-76
2022/02/04 17:35:59;;;;;;;10.80;4.30;;;9.10;99.90;;;;;;5115878;28;20123;-74
2022/02/04 17:38:25;;;;;;;12.73;5.68;;;9.10;99.90;;;;;;5115741;28;20489;-77
2022/02/04 17:40:53;;;;;;;16.48;5.28;;;9.10;99.90;;;;;;5115407;28;20059;-78
2022/02/04 17:43:19;;;;;;;14.18;5.07;;;9.10;99.90;;;;;;5115697;27;20051;-75
2022/02/04 17:45:45;;;;;;;10.75;4.18;;;9.10;99.90;;;;;;5115422;28;20065;-74
2022/02/04 17:48:22;;;;;;;10.07;3.35;;;9.00;99.90;;;;;;5115320;28;20404;-77
2022/02/04 17:50:52;;;;;;;11.00;3.30;;;9.00;99.90;;;;;;5113745;28;20157;-78
2022/02/04 17:53:23;;;;;;;7.85;3.30;;;9.10;99.90;;;;;;5113755;28;20031;-76
2022/02/04 17:55:54;;;;;;;24.67;12.32;;;9.00;99.90;;;;;;5115288;28;20027;-76
2022/02/04 18:06:32;;;;;;;17.55;7.47;;;8.40;99.90;;;;;;5115366;28;20031;-76
2022/02/04 18:08:57;;;;;;;21.17;9.93;;;8.30;99.90;;;;;;5113422;28;20031;-78
2022/02/04 18:11:26;;;;;;;16.38;7.97;;;8.30;99.90;;;;;;5114883;28;20473;-75
2022/02/04 18:13:52;;;;;;;19.42;8.30;;;8.10;99.90;;;;;;5114885;28;20525;-77
2022/02/04 18:16:18;;;;;;;14.25;6.75;;;7.90;99.90;;;;;;5114819;28;20081;-76
2022/02/04 18:18:43;;;;;;;13.48;4.88;;;7.60;99.90;;;;;;5114762;28;20149;-76
2022/02/04 18:21:09;;;;;;;11.70;4.78;;;7.70;99.90;;;;;;5114903;28;20067;-78
2022/02/04 18:23:35;;;;;;;17.13;6.20;;;7.60;99.90;;;;;;5114676;28;20082;-76
2022/02/04 18:26:01;;;;;;;16.73;5.97;;;7.70;99.90;;;;;;5114604;28;20024;-75
2022/02/04 18:28:27;;;;;;;13.48;5.88;;;7.60;99.90;;;;;;5114829;28;20023;-76
2022/02/04 18:30:55;;;;;;;14.98;7.50;;;7.60;99.90;;;;;;5114532;28;20023;-75
2022/02/04 18:33:21;;;;;;;16.60;6.13;;;7.60;99.90;;;;;;5113200;28;20076;-77
2022/02/04 18:35:56;;;;;;;17.83;7.78;;;7.70;99.90;;;;;;5114199;28;20061;-77
2022/02/04 18:38:32;;;;;;;13.85;4.88;;;7.70;99.90;;;;;;5114670;28;20027;-76
2022/02/04 18:48:50;;;;;;;18.48;4.55;;;7.30;99.90;;;;;;5114482;28;20089;-77
2022/02/04 18:54:14;;;;;;;9.20;3.75;;;7.10;99.90;;;;;;5114177;28;20097;-78
2022/02/04 18:59:30;;;;;;;6.95;3.30;;;7.00;99.90;;;;;;5114623;28;20035;-75
2022/02/04 19:01:56;;;;;;;14.93;3.90;;;7.00;99.90;;;;;;5114352;28;20030;-79
2022/02/04 19:04:34;;;;;;;15.73;4.32;;;7.00;99.90;;;;;;5112325;28;20449;-75
2022/02/04 19:07:05;;;;;;;10.80;3.63;;;7.10;99.90;;;;;;5114228;28;20023;-77
2022/02/04 19:09:32;;;;;;;12.85;4.47;;;7.00;99.90;;;;;;5113933;28;20019;-75
2022/02/04 19:12:06;;;;;;;12.48;4.75;;;7.00;99.90;;;;;;5114128;28;20043;-75
2022/02/04 19:17:22;;;;;;;;;;;6.80;99.90;;;;;;5114235;28;20051;-75
2022/02/04 19:19:58;;;;;;;11.27;4.00;;;6.70;99.90;;;;;;5112150;28;19918;-78
2022/02/04 19:22:34;;;;;;;8.73;4.47;;;6.60;99.90;;;;;;5113768;28;20020;-76
2022/02/04 19:25:04;;;;;;;12.38;4.82;;;6.70;99.90;;;;;;5114011;28;20023;-79
2022/02/04 19:27:29;;;;;;;12.40;4.70;;;6.60;99.90;;;;;;5114100;28;20068;-77
2022/02/04 19:29:55;;;;;;;13.57;5.25;;;6.70;99.90;;;;;;5113661;28;20032;-78
2022/02/04 19:32:22;;;;;;;12.32;5.63;;;6.50;99.90;;;;;;5113657;28;20107;-76
2022/02/04 19:34:47;;;;;;;12.13;4.45;;;6.60;99.90;;;;;;5113607;28;20022;-77
2022/02/04 19:37:13;;;;;;;13.43;6.32;;;6.70;99.90;;;;;;5113856;28;20020;-76
2022/02/04 19:39:42;;;;;;;16.73;7.35;;;6.70;99.90;;;;;;5113456;28;20083;-76
2022/02/04 19:42:20;;;;;;;13.45;5.90;;;6.60;99.90;;;;;;5114066;28;20072;-78
2022/02/04 19:44:52;;;;;;;15.23;6.10;;;6.70;99.90;;;;;;5114164;28;20027;-77